sensor_id;sensor_type;location;lat;lon;timestamp;P1;durP1;ratioP1;P2;durP2;ratioP2
10303;SDS011;5197;48.152;8.590;2023-02-28T00:00:37;4.30;;;1.50;;
10303;SDS011;5197;48.152;8.590;2023-02-28T00:03:04;3.07;;;2.60;;
10303;SDS011;5197;48.152;8.590;2023-02-28T00:05:31;3.10;;;2.80;;
10303;SDS011;5197;48.152;8.590;2023-02-28T00:07:58;2.77;;;1.77;;
10303;SDS011;5197;48.152;8.590;2023-02-28T00:10:27;4.30;;;2.90;;
10303;SDS011;5197;48.152;8.590;2023-02-28T00:12:58;2.67;;;2.07;;
10303;SDS011;5197;48.152;8.590;2023-02-28T00:15:27;3.33;;;3.00;;
10303;SDS011;5197;48.152;8.590;2023-02-28T00:17:54;3.20;;;2.97;;
10303;SDS011;5197;48.152;8.590;2023-02-28T00:20:21;1.63;;;1.53;;
10303;SDS011;5197;48.152;8.590;2023-02-28T00:22:49;4.87;;;3.40;;
10303;SDS011;5197;48.152;8.590;2023-02-28T00:25:18;3.30;;;3.00;;
10303;SDS011;5197;48.152;8.590;2023-02-28T00:27:47;4.80;;;2.73;;
10303;SDS011;5197;48.152;8.590;2023-02-28T00:30:16;1.20;;;1.13;;
10303;SDS011;5197;48.152;8.590;2023-02-28T00:32:44;1.10;;;1.10;;
10303;SDS011;5197;48.152;8.590;2023-02-28T00:35:11;1.53;;;1.03;;
10303;SDS011;5197;48.152;8.590;2023-02-28T00:37:39;1.87;;;1.77;;
10303;SDS011;5197;48.152;8.590;2023-02-28T00:40:06;1.40;;;1.37;;
10303;SDS011;5197;48.152;8.590;2023-02-28T00:42:34;1.80;;;1.43;;
10303;SDS011;5197;48.152;8.590;2023-02-28T00:45:02;3.80;;;3.07;;
10303;SDS011;5197;48.152;8.590;2023-02-28T00:47:32;3.07;;;2.80;;
10303;SDS011;5197;48.152;8.590;2023-02-28T00:50:00;0.97;;;0.97;;
10303;SDS011;5197;48.152;8.590;2023-02-28T00:52:27;3.67;;;2.50;;
10303;SDS011;5197;48.152;8.590;2023-02-28T00:54:54;3.33;;;2.70;;
10303;SDS011;5197;48.152;8.590;2023-02-28T00:57:21;1.57;;;1.47;;
10303;SDS011;5197;48.152;8.590;2023-02-28T00:59:49;2.33;;;1.73;;
10303;SDS011;5197;48.152;8.590;2023-02-28T01:02:16;1.63;;;1.53;;
10303;SDS011;5197;48.152;8.590;2023-02-28T01:04:44;2.37;;;2.17;;
10303;SDS011;5197;48.152;8.590;2023-02-28T01:07:11;1.27;;;0.90;;
10303;SDS011;5197;48.152;8.590;2023-02-28T01:09:38;3.93;;;3.00;;
10303;SDS011;5197;48.152;8.590;2023-02-28T01:12:06;3.50;;;2.03;;
10303;SDS011;5197;48.152;8.590;2023-02-28T01:14:34;2.77;;;2.00;;
10303;SDS011;5197;48.152;8.590;2023-02-28T01:17:01;2.77;;;1.63;;
10303;SDS011;5197;48.152;8.590;2023-02-28T01:19:28;2.90;;;2.70;;
10303;SDS011;5197;48.152;8.590;2023-02-28T01:21:55;1.97;;;1.57;;
10303;SDS011;5197;48.152;8.590;2023-02-28T01:24:22;2.80;;;2.47;;
10303;SDS011;5197;48.152;8.590;2023-02-28T01:26:49;2.70;;;2.50;;
10303;SDS011;5197;48.152;8.590;2023-02-28T01:29:16;2.63;;;2.43;;
10303;SDS011;5197;48.152;8.590;2023-02-28T01:31:43;3.07;;;2.20;;
10303;SDS011;5197;48.152;8.590;2023-02-28T01:34:10;2.47;;;2.27;;
10303;SDS011;5197;48.152;8.590;2023-02-28T01:36:37;2.77;;;2.13;;
10303;SDS011;5197;48.152;8.590;2023-02-28T01:39:04;1.33;;;1.23;;
10303;SDS011;5197;48.152;8.590;2023-02-28T01:41:32;1.17;;;1.17;;
10303;SDS011;5197;48.152;8.590;2023-02-28T01:44:02;2.00;;;1.90;;
10303;SDS011;5197;48.152;8.590;2023-02-28T01:46:32;1.27;;;1.17;;
10303;SDS011;5197;48.152;8.590;2023-02-28T01:51:45;1.57;;;1.47;;
10303;SDS011;5197;48.152;8.590;2023-02-28T01:54:20;1.77;;;1.67;;
10303;SDS011;5197;48.152;8.590;2023-02-28T01:59:47;2.27;;;2.07;;
10303;SDS011;5197;48.152;8.590;2023-02-28T02:02:19;2.03;;;1.00;;
10303;SDS011;5197;48.152;8.590;2023-02-28T02:04:53;3.03;;;2.73;;
10303;SDS011;5197;48.152;8.590;2023-02-28T02:07:32;3.10;;;1.90;;
10303;SDS011;5197;48.152;8.590;2023-02-28T02:10:48;2.60;;;1.87;;
10303;SDS011;5197;48.152;8.590;2023-02-28T02:26:52;1.83;;;1.50;;
10303;SDS011;5197;48.152;8.590;2023-02-28T02:40:22;2.63;;;2.43;;
10303;SDS011;5197;48.152;8.590;2023-02-28T02:48:03;1.10;;;0.97;;
10303;SDS011;5197;48.152;8.590;2023-02-28T02:50:36;1.60;;;1.10;;
10303;SDS011;5197;48.152;8.590;2023-02-28T02:53:12;3.00;;;2.70;;
10303;SDS011;5197;48.152;8.590;2023-02-28T02:55:44;1.53;;;1.43;;
10303;SDS011;5197;48.152;8.590;2023-02-28T02:58:14;2.43;;;1.70;;
10303;SDS011;5197;48.152;8.590;2023-02-28T03:00:50;2.80;;;2.50;;
10303;SDS011;5197;48.152;8.590;2023-02-28T03:03:21;4.53;;;2.00;;
10303;SDS011;5197;48.152;8.590;2023-02-28T03:05:56;1.70;;;1.60;;
10303;SDS011;5197;48.152;8.590;2023-02-28T03:08:25;1.70;;;1.47;;
10303;SDS011;5197;48.152;8.590;2023-02-28T03:10:56;1.40;;;1.30;;
10303;SDS011;5197;48.152;8.590;2023-02-28T03:26:42;2.60;;;2.37;;
10303;SDS011;5197;48.152;8.590;2023-02-28T03:29:35;2.13;;;1.93;;
10303;SDS011;5197;48.152;8.590;2023-02-28T03:32:18;2.30;;;1.90;;
10303;SDS011;5197;48.152;8.590;2023-02-28T03:34:57;4.80;;;1.33;;
10303;SDS011;5197;48.152;8.590;2023-02-28T03:37:26;1.93;;;1.70;;
10303;SDS011;5197;48.152;8.590;2023-02-28T03:40:00;2.67;;;2.27;;
10303;SDS011;5197;48.152;8.590;2023-02-28T03:42:41;3.03;;;1.90;;
10303;SDS011;5197;48.152;8.590;2023-02-28T03:45:14;3.40;;;2.60;;
10303;SDS011;5197;48.152;8.590;2023-02-28T03:47:54;2.00;;;1.90;;
10303;SDS011;5197;48.152;8.590;2023-02-28T03:50:44;1.67;;;1.47;;
10303;SDS011;5197;48.152;8.590;2023-02-28T03:53:17;2.53;;;2.33;;
10303;SDS011;5197;48.152;8.590;2023-02-28T03:56:23;2.97;;;1.77;;
10303;SDS011;5197;48.152;8.590;2023-02-28T03:58:48;3.10;;;2.10;;
10303;SDS011;5197;48.152;8.590;2023-02-28T04:01:30;1.90;;;1.80;;
10303;SDS011;5197;48.152;8.590;2023-02-28T04:04:04;2.57;;;1.60;;
10303;SDS011;5197;48.152;8.590;2023-02-28T04:06:32;3.30;;;3.00;;
10303;SDS011;5197;48.152;8.590;2023-02-28T04:09:00;2.63;;;2.23;;
10303;SDS011;5197;48.152;8.590;2023-02-28T04:14:04;3.87;;;2.90;;
10303;SDS011;5197;48.152;8.590;2023-02-28T04:16:34;2.47;;;1.20;;
10303;SDS011;5197;48.152;8.590;2023-02-28T04:19:02;3.00;;;2.40;;
10303;SDS011;5197;48.152;8.590;2023-02-28T04:21:32;1.33;;;1.07;;
10303;SDS011;5197;48.152;8.590;2023-02-28T04:24:01;2.17;;;1.87;;
10303;SDS011;5197;48.152;8.590;2023-02-28T04:26:33;1.77;;;1.43;;
10303;SDS011;5197;48.152;8.590;2023-02-28T04:29:02;1.33;;;1.23;;
10303;SDS011;5197;48.152;8.590;2023-02-28T04:31:31;1.00;;;1.00;;
10303;SDS011;5197;48.152;8.590;2023-02-28T04:33:59;2.93;;;2.03;;
10303;SDS011;5197;48.152;8.590;2023-02-28T04:36:26;3.03;;;2.70;;
10303;SDS011;5197;48.152;8.590;2023-02-28T04:38:54;1.07;;;1.03;;
10303;SDS011;5197;48.152;8.590;2023-02-28T04:41:21;3.37;;;2.77;;
10303;SDS011;5197;48.152;8.590;2023-02-28T04:43:50;2.40;;;2.20;;
10303;SDS011;5197;48.152;8.590;2023-02-28T04:46:19;0.97;;;0.97;;
10303;SDS011;5197;48.152;8.590;2023-02-28T04:48:46;4.10;;;3.33;;
10303;SDS011;5197;48.152;8.590;2023-02-28T04:51:14;1.73;;;1.63;;
10303;SDS011;5197;48.152;8.590;2023-02-28T04:53:42;2.77;;;2.20;;
10303;SDS011;5197;48.152;8.590;2023-02-28T04:56:14;2.87;;;2.63;;
10303;SDS011;5197;48.152;8.590;2023-02-28T04:58:42;2.23;;;2.10;;
10303;SDS011;5197;48.152;8.590;2023-02-28T05:01:17;2.50;;;1.97;;
10303;SDS011;5197;48.152;8.590;2023-02-28T05:03:44;1.20;;;1.10;;
10303;SDS011;5197;48.152;8.590;2023-02-28T05:06:12;2.73;;;1.77;;
10303;SDS011;5197;48.152;8.590;2023-02-28T05:08:39;2.90;;;2.50;;
10303;SDS011;5197;48.152;8.590;2023-02-28T05:11:15;2.60;;;2.27;;
10303;SDS011;5197;48.152;8.590;2023-02-28T05:13:43;1.63;;;1.13;;
10303;SDS011;5197;48.152;8.590;2023-02-28T05:16:11;4.03;;;2.77;;
10303;SDS011;5197;48.152;8.590;2023-02-28T05:18:38;1.67;;;1.57;;
10303;SDS011;5197;48.152;8.590;2023-02-28T05:21:06;2.87;;;1.67;;
10303;SDS011;5197;48.152;8.590;2023-02-28T05:23:50;3.67;;;3.37;;
10303;SDS011;5197;48.152;8.590;2023-02-28T05:26:17;2.40;;;2.17;;
10303;SDS011;5197;48.152;8.590;2023-02-28T05:28:44;1.70;;;1.60;;
10303;SDS011;5197;48.152;8.590;2023-02-28T05:31:11;2.73;;;2.50;;
10303;SDS011;5197;48.152;8.590;2023-02-28T05:33:38;8.67;;;3.13;;
10303;SDS011;5197;48.152;8.590;2023-02-28T05:36:06;3.43;;;3.13;;
10303;SDS011;5197;48.152;8.590;2023-02-28T05:38:33;4.00;;;2.60;;
10303;SDS011;5197;48.152;8.590;2023-02-28T05:41:10;3.57;;;2.43;;
10303;SDS011;5197;48.152;8.590;2023-02-28T05:43:37;4.17;;;3.10;;
10303;SDS011;5197;48.152;8.590;2023-02-28T05:46:05;3.50;;;1.37;;
10303;SDS011;5197;48.152;8.590;2023-02-28T05:48:52;3.23;;;2.20;;
10303;SDS011;5197;48.152;8.590;2023-02-28T05:51:39;3.07;;;2.27;;
10303;SDS011;5197;48.152;8.590;2023-02-28T05:54:25;2.17;;;1.63;;
10303;SDS011;5197;48.152;8.590;2023-02-28T05:57:11;4.13;;;1.63;;
10303;SDS011;5197;48.152;8.590;2023-02-28T05:59:49;0.50;;;0.50;;
10303;SDS011;5197;48.152;8.590;2023-02-28T06:02:17;2.07;;;1.90;;
10303;SDS011;5197;48.152;8.590;2023-02-28T06:04:44;1.87;;;1.77;;
10303;SDS011;5197;48.152;8.590;2023-02-28T06:07:11;3.70;;;2.67;;
10303;SDS011;5197;48.152;8.590;2023-02-28T06:09:38;3.50;;;3.10;;
10303;SDS011;5197;48.152;8.590;2023-02-28T06:12:06;2.63;;;2.03;;
10303;SDS011;5197;48.152;8.590;2023-02-28T06:14:36;2.90;;;1.33;;
10303;SDS011;5197;48.152;8.590;2023-02-28T06:17:03;3.73;;;2.90;;
10303;SDS011;5197;48.152;8.590;2023-02-28T06:19:30;3.73;;;3.33;;
10303;SDS011;5197;48.152;8.590;2023-02-28T06:21:57;3.10;;;1.57;;
10303;SDS011;5197;48.152;8.590;2023-02-28T06:24:26;3.13;;;2.13;;
10303;SDS011;5197;48.152;8.590;2023-02-28T06:26:54;2.53;;;2.00;;
10303;SDS011;5197;48.152;8.590;2023-02-28T06:29:22;2.47;;;2.03;;
10303;SDS011;5197;48.152;8.590;2023-02-28T06:31:49;1.43;;;1.33;;
10303;SDS011;5197;48.152;8.590;2023-02-28T06:34:16;2.73;;;2.23;;
10303;SDS011;5197;48.152;8.590;2023-02-28T06:36:43;7.40;;;5.10;;
10303;SDS011;5197;48.152;8.590;2023-02-28T06:39:10;3.47;;;2.43;;
10303;SDS011;5197;48.152;8.590;2023-02-28T06:41:37;4.37;;;2.80;;
10303;SDS011;5197;48.152;8.590;2023-02-28T06:44:20;3.17;;;2.87;;
10303;SDS011;5197;48.152;8.590;2023-02-28T06:46:47;4.50;;;3.13;;
10303;SDS011;5197;48.152;8.590;2023-02-28T06:49:15;2.53;;;2.33;;
10303;SDS011;5197;48.152;8.590;2023-02-28T06:51:43;4.83;;;3.47;;
10303;SDS011;5197;48.152;8.590;2023-02-28T06:54:13;5.60;;;4.10;;
10303;SDS011;5197;48.152;8.590;2023-02-28T06:56:40;7.67;;;3.63;;
10303;SDS011;5197;48.152;8.590;2023-02-28T06:59:07;10.53;;;4.60;;
10303;SDS011;5197;48.152;8.590;2023-02-28T07:01:34;2.43;;;2.23;;
10303;SDS011;5197;48.152;8.590;2023-02-28T07:04:01;3.47;;;3.17;;
10303;SDS011;5197;48.152;8.590;2023-02-28T07:06:28;2.90;;;1.93;;
10303;SDS011;5197;48.152;8.590;2023-02-28T07:08:55;1.77;;;1.67;;
10303;SDS011;5197;48.152;8.590;2023-02-28T07:11:23;2.97;;;2.73;;
10303;SDS011;5197;48.152;8.590;2023-02-28T07:13:55;3.03;;;2.67;;
10303;SDS011;5197;48.152;8.590;2023-02-28T07:16:23;3.87;;;2.53;;
10303;SDS011;5197;48.152;8.590;2023-02-28T07:18:54;4.30;;;3.30;;
10303;SDS011;5197;48.152;8.590;2023-02-28T07:21:21;4.33;;;2.90;;
10303;SDS011;5197;48.152;8.590;2023-02-28T07:23:48;4.17;;;3.77;;
10303;SDS011;5197;48.152;8.590;2023-02-28T07:26:17;6.57;;;3.97;;
10303;SDS011;5197;48.152;8.590;2023-02-28T07:28:45;3.70;;;3.10;;
10303;SDS011;5197;48.152;8.590;2023-02-28T07:31:14;6.50;;;4.57;;
10303;SDS011;5197;48.152;8.590;2023-02-28T07:33:42;2.37;;;2.23;;
10303;SDS011;5197;48.152;8.590;2023-02-28T07:36:10;6.73;;;5.20;;
10303;SDS011;5197;48.152;8.590;2023-02-28T07:38:42;4.13;;;3.60;;
10303;SDS011;5197;48.152;8.590;2023-02-28T07:41:14;4.00;;;3.57;;
10303;SDS011;5197;48.152;8.590;2023-02-28T07:43:46;4.50;;;2.17;;
10303;SDS011;5197;48.152;8.590;2023-02-28T07:46:14;7.50;;;6.40;;
10303;SDS011;5197;48.152;8.590;2023-02-28T07:48:43;6.53;;;4.97;;
10303;SDS011;5197;48.152;8.590;2023-02-28T07:51:10;3.77;;;3.33;;
10303;SDS011;5197;48.152;8.590;2023-02-28T07:53:37;2.23;;;2.07;;
10303;SDS011;5197;48.152;8.590;2023-02-28T07:56:04;2.77;;;2.53;;
10303;SDS011;5197;48.152;8.590;2023-02-28T07:58:32;7.97;;;6.83;;
10303;SDS011;5197;48.152;8.590;2023-02-28T08:01:05;3.67;;;3.37;;
10303;SDS011;5197;48.152;8.590;2023-02-28T08:03:34;10.43;;;5.33;;
10303;SDS011;5197;48.152;8.590;2023-02-28T08:06:02;3.07;;;2.27;;
10303;SDS011;5197;48.152;8.590;2023-02-28T08:08:30;3.97;;;3.57;;
10303;SDS011;5197;48.152;8.590;2023-02-28T08:10:58;7.53;;;4.83;;
10303;SDS011;5197;48.152;8.590;2023-02-28T08:13:27;4.70;;;2.20;;
10303;SDS011;5197;48.152;8.590;2023-02-28T08:15:55;4.43;;;2.10;;
10303;SDS011;5197;48.152;8.590;2023-02-28T08:18:23;4.83;;;3.67;;
10303;SDS011;5197;48.152;8.590;2023-02-28T08:20:50;4.77;;;3.73;;
10303;SDS011;5197;48.152;8.590;2023-02-28T08:23:17;2.47;;;2.27;;
10303;SDS011;5197;48.152;8.590;2023-02-28T08:25:44;2.70;;;1.53;;
10303;SDS011;5197;48.152;8.590;2023-02-28T08:28:11;8.07;;;4.37;;
10303;SDS011;5197;48.152;8.590;2023-02-28T08:30:38;5.40;;;4.30;;
10303;SDS011;5197;48.152;8.590;2023-02-28T08:33:07;4.97;;;2.90;;
10303;SDS011;5197;48.152;8.590;2023-02-28T08:35:35;3.40;;;1.87;;
10303;SDS011;5197;48.152;8.590;2023-02-28T08:38:02;4.53;;;2.53;;
10303;SDS011;5197;48.152;8.590;2023-02-28T08:40:29;6.90;;;3.60;;
10303;SDS011;5197;48.152;8.590;2023-02-28T08:42:56;5.73;;;4.60;;
10303;SDS011;5197;48.152;8.590;2023-02-28T08:45:24;4.30;;;2.90;;
10303;SDS011;5197;48.152;8.590;2023-02-28T08:47:51;7.80;;;5.97;;
10303;SDS011;5197;48.152;8.590;2023-02-28T08:50:20;4.43;;;3.00;;
10303;SDS011;5197;48.152;8.590;2023-02-28T08:52:48;2.93;;;2.57;;
10303;SDS011;5197;48.152;8.590;2023-02-28T08:55:14;4.03;;;3.53;;
10303;SDS011;5197;48.152;8.590;2023-02-28T08:57:42;1.40;;;1.27;;
10303;SDS011;5197;48.152;8.590;2023-02-28T09:00:09;4.47;;;4.07;;
10303;SDS011;5197;48.152;8.590;2023-02-28T09:02:40;6.83;;;4.80;;
10303;SDS011;5197;48.152;8.590;2023-02-28T09:05:09;4.50;;;3.23;;
10303;SDS011;5197;48.152;8.590;2023-02-28T09:07:36;9.17;;;6.77;;
10303;SDS011;5197;48.152;8.590;2023-02-28T09:10:03;9.77;;;6.20;;
10303;SDS011;5197;48.152;8.590;2023-02-28T09:12:32;3.60;;;3.23;;
10303;SDS011;5197;48.152;8.590;2023-02-28T09:15:01;5.73;;;4.03;;
10303;SDS011;5197;48.152;8.590;2023-02-28T09:17:28;4.63;;;3.33;;
10303;SDS011;5197;48.152;8.590;2023-02-28T09:19:56;7.37;;;5.60;;
10303;SDS011;5197;48.152;8.590;2023-02-28T09:22:24;3.90;;;3.50;;
10303;SDS011;5197;48.152;8.590;2023-02-28T09:24:51;5.27;;;3.67;;
10303;SDS011;5197;48.152;8.590;2023-02-28T09:27:18;6.87;;;4.80;;
10303;SDS011;5197;48.152;8.590;2023-02-28T09:29:45;5.27;;;4.70;;
10303;SDS011;5197;48.152;8.590;2023-02-28T09:32:12;7.77;;;5.10;;
10303;SDS011;5197;48.152;8.590;2023-02-28T09:34:39;5.20;;;3.97;;
10303;SDS011;5197;48.152;8.590;2023-02-28T09:37:06;8.33;;;6.67;;
10303;SDS011;5197;48.152;8.590;2023-02-28T09:39:33;4.20;;;2.53;;
10303;SDS011;5197;48.152;8.590;2023-02-28T09:42:00;5.50;;;3.83;;
10303;SDS011;5197;48.152;8.590;2023-02-28T09:44:42;3.43;;;3.13;;
10303;SDS011;5197;48.152;8.590;2023-02-28T09:47:13;6.23;;;3.30;;
10303;SDS011;5197;48.152;8.590;2023-02-28T09:49:48;5.00;;;3.93;;
10303;SDS011;5197;48.152;8.590;2023-02-28T09:52:19;10.90;;;6.70;;
10303;SDS011;5197;48.152;8.590;2023-02-28T09:54:54;10.13;;;8.10;;
10303;SDS011;5197;48.152;8.590;2023-02-28T10:00:03;9.47;;;7.73;;
10303;SDS011;5197;48.152;8.590;2023-02-28T10:02:39;9.83;;;8.83;;
10303;SDS011;5197;48.152;8.590;2023-02-28T10:05:27;10.80;;;7.67;;
10303;SDS011;5197;48.152;8.590;2023-02-28T10:08:18;10.13;;;8.40;;
10303;SDS011;5197;48.152;8.590;2023-02-28T10:11:02;10.03;;;8.83;;
10303;SDS011;5197;48.152;8.590;2023-02-28T10:13:50;10.50;;;9.40;;
10303;SDS011;5197;48.152;8.590;2023-02-28T10:24:53;11.10;;;8.10;;
10303;SDS011;5197;48.152;8.590;2023-02-28T10:27:23;10.00;;;8.20;;
10303;SDS011;5197;48.152;8.590;2023-02-28T10:29:53;12.73;;;8.77;;
10303;SDS011;5197;48.152;8.590;2023-02-28T10:32:31;9.77;;;8.70;;
10303;SDS011;5197;48.152;8.590;2023-02-28T10:37:40;13.17;;;8.87;;
10303;SDS011;5197;48.152;8.590;2023-02-28T10:45:33;10.37;;;7.93;;
10303;SDS011;5197;48.152;8.590;2023-02-28T10:48:24;9.57;;;8.33;;
10303;SDS011;5197;48.152;8.590;2023-02-28T10:50:58;10.67;;;8.57;;
10303;SDS011;5197;48.152;8.590;2023-02-28T10:53:59;9.93;;;8.93;;
10303;SDS011;5197;48.152;8.590;2023-02-28T10:56:27;10.43;;;8.07;;
10303;SDS011;5197;48.152;8.590;2023-02-28T11:01:34;10.00;;;8.23;;
10303;SDS011;5197;48.152;8.590;2023-02-28T11:04:23;9.60;;;7.67;;
10303;SDS011;5197;48.152;8.590;2023-02-28T11:07:04;11.77;;;8.80;;
10303;SDS011;5197;48.152;8.590;2023-02-28T11:09:56;9.43;;;8.07;;
10303;SDS011;5197;48.152;8.590;2023-02-28T11:12:36;10.43;;;8.10;;
10303;SDS011;5197;48.152;8.590;2023-02-28T11:17:53;10.90;;;8.83;;
10303;SDS011;5197;48.152;8.590;2023-02-28T11:20:26;10.87;;;8.90;;
10303;SDS011;5197;48.152;8.590;2023-02-28T11:22:56;8.67;;;7.17;;
10303;SDS011;5197;48.152;8.590;2023-02-28T11:25:25;10.87;;;8.00;;
10303;SDS011;5197;48.152;8.590;2023-02-28T11:27:57;10.57;;;9.47;;
10303;SDS011;5197;48.152;8.590;2023-02-28T11:30:38;10.47;;;8.50;;
10303;SDS011;5197;48.152;8.590;2023-02-28T11:33:21;11.27;;;8.93;;
10303;SDS011;5197;48.152;8.590;2023-02-28T11:35:49;10.30;;;9.20;;
10303;SDS011;5197;48.152;8.590;2023-02-28T11:38:16;10.30;;;8.93;;
10303;SDS011;5197;48.152;8.590;2023-02-28T11:43:32;11.50;;;9.10;;
10303;SDS011;5197;48.152;8.590;2023-02-28T11:46:16;9.53;;;8.13;;
10303;SDS011;5197;48.152;8.590;2023-02-28T11:57:52;9.60;;;8.33;;
10303;SDS011;5197;48.152;8.590;2023-02-28T12:02:55;10.77;;;9.27;;
10303;SDS011;5197;48.152;8.590;2023-02-28T12:05:50;4.63;;;3.90;;
10303;SDS011;5197;48.152;8.590;2023-02-28T12:22:29;6.57;;;5.23;;
10303;SDS011;5197;48.152;8.590;2023-02-28T12:28:11;4.10;;;3.70;;
10303;SDS011;5197;48.152;8.590;2023-02-28T12:31:04;10.27;;;9.17;;
10303;SDS011;5197;48.152;8.590;2023-02-28T12:33:42;5.40;;;3.57;;
10303;SDS011;5197;48.152;8.590;2023-02-28T12:36:15;11.43;;;9.20;;
10303;SDS011;5197;48.152;8.590;2023-02-28T12:38:53;6.93;;;5.83;;
10303;SDS011;5197;48.152;8.590;2023-02-28T12:46:58;9.57;;;8.57;;
10303;SDS011;5197;48.152;8.590;2023-02-28T12:49:30;10.47;;;8.97;;
10303;SDS011;5197;48.152;8.590;2023-02-28T12:52:00;12.17;;;9.53;;
10303;SDS011;5197;48.152;8.590;2023-02-28T12:54:37;6.40;;;5.00;;
10303;SDS011;5197;48.152;8.590;2023-02-28T13:00:08;9.80;;;7.73;;
10303;SDS011;5197;48.152;8.590;2023-02-28T13:08:27;16.53;;;9.83;;
10303;SDS011;5197;48.152;8.590;2023-02-28T13:11:28;3.67;;;3.23;;
10303;SDS011;5197;48.152;8.590;2023-02-28T13:13:58;13.93;;;8.13;;
10303;SDS011;5197;48.152;8.590;2023-02-28T13:16:26;11.10;;;7.23;;
10303;SDS011;5197;48.152;8.590;2023-02-28T13:19:07;10.43;;;8.77;;
10303;SDS011;5197;48.152;8.590;2023-02-28T13:21:41;7.27;;;5.97;;
10303;SDS011;5197;48.152;8.590;2023-02-28T13:24:11;19.23;;;8.37;;
10303;SDS011;5197;48.152;8.590;2023-02-28T13:29:42;16.67;;;9.47;;
10303;SDS011;5197;48.152;8.590;2023-02-28T13:39:51;9.40;;;8.20;;
10303;SDS011;5197;48.152;8.590;2023-02-28T13:47:41;12.03;;;9.07;;
10303;SDS011;5197;48.152;8.590;2023-02-28T14:06:53;12.70;;;9.23;;
10303;SDS011;5197;48.152;8.590;2023-02-28T14:09:32;4.67;;;2.97;;
10303;SDS011;5197;48.152;8.590;2023-02-28T14:17:57;9.10;;;7.53;;
10303;SDS011;5197;48.152;8.590;2023-02-28T14:20:26;10.00;;;7.50;;
10303;SDS011;5197;48.152;8.590;2023-02-28T14:23:01;13.23;;;7.37;;
10303;SDS011;5197;48.152;8.590;2023-02-28T14:28:19;10.07;;;8.37;;
10303;SDS011;5197;48.152;8.590;2023-02-28T14:31:28;9.50;;;7.67;;
10303;SDS011;5197;48.152;8.590;2023-02-28T14:37:00;11.40;;;7.97;;
10303;SDS011;5197;48.152;8.590;2023-02-28T14:39:29;9.33;;;8.43;;
10303;SDS011;5197;48.152;8.590;2023-02-28T14:41:57;5.13;;;4.37;;
10303;SDS011;5197;48.152;8.590;2023-02-28T14:44:29;7.77;;;5.90;;
10303;SDS011;5197;48.152;8.590;2023-02-28T14:46:57;11.17;;;7.30;;
10303;SDS011;5197;48.152;8.590;2023-02-28T14:49:37;8.10;;;5.83;;
10303;SDS011;5197;48.152;8.590;2023-02-28T14:52:14;12.90;;;8.10;;
10303;SDS011;5197;48.152;8.590;2023-02-28T14:54:45;4.70;;;4.20;;
10303;SDS011;5197;48.152;8.590;2023-02-28T15:00:07;12.37;;;7.67;;
10303;SDS011;5197;48.152;8.590;2023-02-28T15:02:38;8.57;;;7.30;;
10303;SDS011;5197;48.152;8.590;2023-02-28T15:07:45;5.63;;;5.13;;
10303;SDS011;5197;48.152;8.590;2023-02-28T15:10:20;10.50;;;7.93;;
10303;SDS011;5197;48.152;8.590;2023-02-28T15:15:19;6.47;;;5.53;;
10303;SDS011;5197;48.152;8.590;2023-02-28T15:18:01;7.93;;;5.13;;
10303;SDS011;5197;48.152;8.590;2023-02-28T15:20:31;11.03;;;5.87;;
10303;SDS011;5197;48.152;8.590;2023-02-28T15:22:59;7.57;;;5.20;;
10303;SDS011;5197;48.152;8.590;2023-02-28T15:25:27;10.93;;;6.67;;
10303;SDS011;5197;48.152;8.590;2023-02-28T15:27:54;11.27;;;8.27;;
10303;SDS011;5197;48.152;8.590;2023-02-28T15:30:27;12.43;;;8.13;;
10303;SDS011;5197;48.152;8.590;2023-02-28T15:35:32;6.83;;;6.23;;
10303;SDS011;5197;48.152;8.590;2023-02-28T15:38:03;5.53;;;4.47;;
10303;SDS011;5197;48.152;8.590;2023-02-28T15:40:56;9.03;;;7.20;;
10303;SDS011;5197;48.152;8.590;2023-02-28T15:43:32;14.33;;;8.40;;
10303;SDS011;5197;48.152;8.590;2023-02-28T15:46:01;8.87;;;7.37;;
10303;SDS011;5197;48.152;8.590;2023-02-28T15:48:29;10.43;;;7.60;;
10303;SDS011;5197;48.152;8.590;2023-02-28T15:53:43;8.90;;;7.87;;
10303;SDS011;5197;48.152;8.590;2023-02-28T15:56:22;13.33;;;10.00;;
10303;SDS011;5197;48.152;8.590;2023-02-28T15:58:55;12.23;;;7.87;;
10303;SDS011;5197;48.152;8.590;2023-02-28T16:01:28;9.07;;;7.03;;
10303;SDS011;5197;48.152;8.590;2023-02-28T16:04:04;7.50;;;6.77;;
10303;SDS011;5197;48.152;8.590;2023-02-28T16:06:43;9.60;;;7.97;;
10303;SDS011;5197;48.152;8.590;2023-02-28T16:09:12;9.90;;;8.10;;
10303;SDS011;5197;48.152;8.590;2023-02-28T16:11:41;10.77;;;8.37;;
10303;SDS011;5197;48.152;8.590;2023-02-28T16:14:12;15.03;;;8.10;;
10303;SDS011;5197;48.152;8.590;2023-02-28T16:16:55;5.20;;;4.40;;
10303;SDS011;5197;48.152;8.590;2023-02-28T16:19:25;4.77;;;4.33;;
10303;SDS011;5197;48.152;8.590;2023-02-28T16:21:52;9.73;;;8.20;;
10303;SDS011;5197;48.152;8.590;2023-02-28T16:24:20;9.33;;;8.20;;
10303;SDS011;5197;48.152;8.590;2023-02-28T16:26:55;11.03;;;8.13;;
10303;SDS011;5197;48.152;8.590;2023-02-28T16:29:27;6.57;;;5.67;;
10303;SDS011;5197;48.152;8.590;2023-02-28T16:32:00;12.80;;;8.70;;
10303;SDS011;5197;48.152;8.590;2023-02-28T16:34:31;14.90;;;8.23;;
10303;SDS011;5197;48.152;8.590;2023-02-28T16:36:58;10.77;;;8.47;;
10303;SDS011;5197;48.152;8.590;2023-02-28T16:39:25;10.43;;;8.57;;
10303;SDS011;5197;48.152;8.590;2023-02-28T16:41:51;11.97;;;8.93;;
10303;SDS011;5197;48.152;8.590;2023-02-28T16:44:29;8.63;;;7.30;;
10303;SDS011;5197;48.152;8.590;2023-02-28T16:46:59;13.57;;;8.23;;
10303;SDS011;5197;48.152;8.590;2023-02-28T16:49:28;8.50;;;7.27;;
10303;SDS011;5197;48.152;8.590;2023-02-28T16:51:57;15.37;;;8.37;;
10303;SDS011;5197;48.152;8.590;2023-02-28T16:57:20;11.47;;;8.37;;
10303;SDS011;5197;48.152;8.590;2023-02-28T16:59:49;8.50;;;7.60;;
10303;SDS011;5197;48.152;8.590;2023-02-28T17:02:19;9.93;;;8.03;;
10303;SDS011;5197;48.152;8.590;2023-02-28T17:04:47;15.23;;;9.70;;
10303;SDS011;5197;48.152;8.590;2023-02-28T17:07:15;10.43;;;7.93;;
10303;SDS011;5197;48.152;8.590;2023-02-28T17:09:44;9.90;;;7.53;;
10303;SDS011;5197;48.152;8.590;2023-02-28T17:12:12;10.63;;;8.57;;
10303;SDS011;5197;48.152;8.590;2023-02-28T17:14:39;11.83;;;8.90;;
10303;SDS011;5197;48.152;8.590;2023-02-28T17:17:06;11.27;;;8.80;;
10303;SDS011;5197;48.152;8.590;2023-02-28T17:19:34;13.83;;;8.80;;
10303;SDS011;5197;48.152;8.590;2023-02-28T17:22:02;16.47;;;9.20;;
10303;SDS011;5197;48.152;8.590;2023-02-28T17:24:30;10.43;;;8.40;;
10303;SDS011;5197;48.152;8.590;2023-02-28T17:26:57;12.50;;;8.77;;
10303;SDS011;5197;48.152;8.590;2023-02-28T17:29:24;11.20;;;7.90;;
10303;SDS011;5197;48.152;8.590;2023-02-28T17:31:51;10.77;;;8.37;;
10303;SDS011;5197;48.152;8.590;2023-02-28T17:34:19;11.23;;;9.00;;
10303;SDS011;5197;48.152;8.590;2023-02-28T17:36:46;10.47;;;8.37;;
10303;SDS011;5197;48.152;8.590;2023-02-28T17:39:18;12.00;;;9.50;;
10303;SDS011;5197;48.152;8.590;2023-02-28T17:41:52;13.57;;;9.57;;
10303;SDS011;5197;48.152;8.590;2023-02-28T17:44:20;13.67;;;9.27;;
10303;SDS011;5197;48.152;8.590;2023-02-28T17:46:47;12.63;;;9.43;;
10303;SDS011;5197;48.152;8.590;2023-02-28T17:49:16;14.23;;;9.43;;
10303;SDS011;5197;48.152;8.590;2023-02-28T17:51:43;15.07;;;9.47;;
10303;SDS011;5197;48.152;8.590;2023-02-28T17:54:10;12.10;;;9.70;;
10303;SDS011;5197;48.152;8.590;2023-02-28T17:56:37;13.73;;;9.77;;
10303;SDS011;5197;48.152;8.590;2023-02-28T17:59:04;14.93;;;11.10;;
10303;SDS011;5197;48.152;8.590;2023-02-28T18:01:31;12.30;;;9.83;;
10303;SDS011;5197;48.152;8.590;2023-02-28T18:03:58;13.63;;;9.53;;
10303;SDS011;5197;48.152;8.590;2023-02-28T18:06:26;12.87;;;9.30;;
10303;SDS011;5197;48.152;8.590;2023-02-28T18:08:57;12.17;;;9.80;;
10303;SDS011;5197;48.152;8.590;2023-02-28T18:11:24;13.57;;;10.33;;
10303;SDS011;5197;48.152;8.590;2023-02-28T18:13:53;12.67;;;9.93;;
10303;SDS011;5197;48.152;8.590;2023-02-28T18:16:21;14.67;;;9.90;;
10303;SDS011;5197;48.152;8.590;2023-02-28T18:18:49;12.27;;;9.90;;
10303;SDS011;5197;48.152;8.590;2023-02-28T18:21:16;16.03;;;11.10;;
10303;SDS011;5197;48.152;8.590;2023-02-28T18:23:44;19.27;;;11.73;;